Latest Coastal Weather Observations for Hobart Airport

IDT60701

Issued at 5:12 am EDT Monday 9 December 2019 (issued every 10 minutes, with the page automatically refreshed every 10 minutes)

About coastal observations | Map of coastal stations | Coastal observations for TAS | Marine services | Other Formats
Station Details ID: 094008 Name: HOBART AIRPORT Lat: -42.83 Lon: 147.50 Height: 4.0 m
Data from the previous 72 hours. | See also: Recent months at Hobart Airport
Date/Time
EDT
Wind Sea
Height
m
Swell Vis
km
Cloud Weather Temp
°C
Press
hPa
Rain since
9am
mm
Dir  Spd
kts
Gust
kts
Height
m
Period
s
Dir
09/05:00am NNW 9 12 - - - - 10 Clear - 14.7 1014.2 0.0
09/04:30am NNW 10 13 - - - - 10 - - 14.9 1014.3 0.0
09/04:00am NNW 8 10 - - - - 10 - - 15.1 1014.5 0.0
09/03:30am NNW 7 10 - - - - 10 - - 14.7 1014.6 0.0
09/03:00am NNW 9 14 - - - - 10 Mostly cloudy - 14.8 1014.7 0.0
09/02:30am WNW 4 9 - - - - 10 - - 15.1 1015.4 0.0
09/02:00am NNW 4 5 - - - - 10 - - 11.9 1015.7 0.0
09/01:30am NW 6 8 - - - - 10 - - 12.0 1016.0 0.0
09/01:00am N 5 7 - - - - 10 - - 13.3 1016.3 0.0
09/12:30am NNE 4 5 - - - - 10 - - 13.3 1016.8 0.0
09/12:00am NNE 7 9 - - - - 10 Mostly clear - 13.6 1016.8 0.0
 
Date/Time
EDT
Wind Sea
Height
m
Swell Vis
km
Cloud Weather Temp
°C
Press
hPa
Rain since
9am
mm
Dir  Spd
kts
Gust
kts
Height
m
Period
s
Dir
08/11:30pm NE 1 4 - - - - 10 - - 13.6 1017.2 0.0
08/11:00pm NE 6 8 - - - - 10 - - 14.4 1017.6 0.0
08/10:30pm NE 9 12 - - - - 10 - - 14.9 1017.7 0.0
08/10:00pm NNE 8 10 - - - - 10 - - 14.8 1018.6 0.0
08/09:30pm NE 8 10 - - - - 10 - - 14.9 1018.5 0.0
08/09:00pm NE 8 12 - - - - 30 Mostly clear Haze 15.2 1018.2 0.0
08/08:30pm NNE 9 13 - - - - 10 Mostly clear - 15.6 1018.1 0.0
08/08:00pm NNE 8 12 - - - - 10 Mostly clear - 16.3 1018.0 0.0
08/07:30pm NNE 8 11 - - - - 10 Mostly clear - 16.9 1017.9 0.0
08/07:00pm NE 6 9 - - - - 10 Mostly clear - 17.5 1018.0 0.0
08/06:30pm SSE 9 12 - - - - 10 Mostly clear - 16.9 1017.8 0.0
08/06:00pm SE 9 15 - - - - 40 Mostly cloudy Fine 17.1 1017.6 0.0
08/05:30pm SE 8 11 - - - - 10 Mostly clear - 19.0 1017.8 0.0
08/05:00pm SSE 9 13 - - - - 10 Mostly clear - 18.7 1018.0 0.0
08/04:30pm SSE 11 17 - - - - 10 Mostly clear - 19.0 1017.8 0.0
08/04:00pm SSE 12 15 - - - - 10 Mostly clear - 17.7 1018.2 0.0
08/03:30pm SSE 13 15 - - - - 10 Mostly clear - 17.8 1018.6 0.0
08/03:00pm SSE 13 15 - - - - 40 Mostly cloudy Fine 17.0 1018.5 0.0
08/02:30pm SSE 14 17 - - - - 10 Mostly clear - 17.1 1018.3 0.0
08/02:00pm SSE 13 16 - - - - 10 Mostly clear - 17.7 1018.2 0.0
08/01:30pm SSE 12 15 - - - - 10 Mostly clear - 17.4 1018.4 0.0
08/01:00pm SE 12 16 - - - - 10 Mostly clear - 17.6 1018.5 0.0
08/12:30pm SE 10 15 - - - - 10 Mostly clear - 17.8 1018.4 0.0
08/12:00pm ESE 5 9 - - - - 40 Mostly cloudy Fine 17.0 1018.6 0.0
08/11:30am SSE 7 10 - - - - 10 Mostly clear - 15.9 1018.6 0.0
08/11:00am SE 8 10 - - - - 10 Mostly clear - 15.5 1018.7 0.0
08/10:30am SE 10 14 - - - - 10 Mostly clear - 15.3 1018.4 0.0
08/10:00am SE 7 10 - - - - 10 Mostly clear - 16.5 1018.7 0.0
08/09:30am SE 6 9 - - - - 10 Partly cloudy - 15.4 1019.2 0.0
08/09:00am WNW 7 11 - - - - 40 Mostly cloudy Fine 15.2 1019.3 1.2
08/08:30am NW 6 9 - - - - 10 Mostly clear - 14.9 1018.7 1.2
08/08:00am NW 6 8 - - - - 10 Mostly clear - 14.4 1018.3 1.2
08/07:30am W 4 7 - - - - 10 Mostly clear - 13.0 1018.4 1.2
08/07:00am NW 4 5 - - - - 10 Mostly clear - 10.7 1018.2 1.2
08/06:30am NNW 5 6 - - - - 10 Mostly clear - 9.6 1017.6 1.2
08/06:00am NW 6 7 - - - - 40 Partly cloudy Fine 9.6 1017.1 1.2
08/05:30am N 5 5 - - - - 10 Cloudy - 9.1 1016.6 1.2
08/05:00am ENE 3 5 - - - - 10 Partly cloudy - 6.9 1016.3 1.2
08/04:30am SW 3 5 - - - - 10 Partly cloudy - 9.7 1015.7 1.2
08/04:00am NW 5 6 - - - - 10 Partly cloudy - 10.3 1015.6 1.2
08/03:30am WNW 1 3 - - - - 10 Cloudy - 11.4 1015.6 1.2
08/03:00am SW 5 6 - - - - 10 Mostly cloudy - 11.7 1015.7 1.2
08/02:30am SSW 6 8 - - - - 10 Partly cloudy - 11.8 1015.6 1.2
08/02:00am W 5 6 - - - - 10 Partly cloudy - 11.5 1015.2 1.2
08/01:30am SW 11 15 - - - - 10 Partly cloudy - 12.3 1014.8 1.2
08/01:00am SW 9 13 - - - - 10 Partly cloudy - 12.8 1014.6 1.2
08/12:30am SSW 8 9 - - - - 10 Cloudy - 12.6 1014.4 1.2
08/12:00am SSW 7 10 - - - - 10 Cloudy - 12.8 1014.1 1.2
 
Date/Time
EDT
Wind Sea
Height
m
Swell Vis
km
Cloud Weather Temp
°C
Press
hPa
Rain since
9am
mm
Dir  Spd
kts
Gust
kts
Height
m
Period
s
Dir
07/11:30pm SSW 9 12 - - - - 10 Mostly cloudy - 12.8 1013.8 1.2
07/11:00pm SSW 10 18 - - - - 10 Partly cloudy - 12.6 1013.4 1.2
07/10:30pm SSW 11 16 - - - - 10 Partly cloudy - 13.0 1012.9 1.2
07/10:00pm SW 12 16 - - - - 10 Partly cloudy - 12.9 1012.7 1.2
07/09:30pm SW 11 17 - - - - 10 Partly cloudy - 13.4 1012.5 1.2
07/09:00pm SW 11 17 - - - - 40 Partly cloudy Fine 13.7 1012.0 1.2
07/08:30pm SW 15 20 - - - - 10 Mostly clear - 13.8 1011.6 1.2
07/08:10pm SW 16 26 - - - - 10 Mostly clear - 14.1 1011.2 1.2
07/08:00pm SW 14 19 - - - - 10 Mostly clear - 14.3 1011.0 1.2
07/07:30pm WSW 18 28 - - - - 10 Mostly clear - 14.5 1010.5 1.2
07/07:02pm WSW 16 26 - - - - 10 Mostly clear - 15.4 1009.8 1.2
07/07:00pm WSW 16 24 - - - - 10 Mostly clear - 15.3 1009.7 1.2
07/06:30pm SW 24 33 - - - - 10 Mostly clear - 16.1 1009.1 1.2
07/06:00pm SW 17 26 - - - - 40 Mostly cloudy Distant precip. 17.0 1008.5 1.2
07/05:30pm S 12 18 - - - - 10 Mostly clear - 17.1 1008.0 1.2
07/05:23pm SW 16 25 - - - - 10 Mostly clear - 16.9 1007.9 1.2
07/05:00pm WSW 21 29 - - - - 10 Mostly clear - 17.4 1007.5 1.2
07/04:48pm WSW 20 30 - - - - 10 Mostly clear - 16.7 1007.5 1.2
07/04:30pm WSW 18 26 - - - - 10 Mostly clear - 16.5 1007.4 1.2
07/04:00pm SW 17 27 - - - - 10 Mostly clear - 15.5 1007.2 1.2
07/03:30pm SW 16 21 - - - - 10 Mostly clear - 15.4 1006.7 1.2
07/03:00pm SW 13 17 - - - - 20 Mostly cloudy Recent precip. 14.8 1006.5 1.2
07/02:30pm SSW 15 20 - - - - 10 Mostly clear - 14.6 1006.1 0.4
07/02:00pm SW 13 19 - - - - 10 Mostly clear - 15.9 1005.8 0.4
07/01:30pm W 13 17 - - - - 10 Mostly clear Showers 15.2 1005.6 0.4
07/01:00pm W 16 21 - - - - 10 Mostly clear - 15.2 1005.4 0.0
07/12:30pm WNW 17 22 - - - - 10 Mostly clear Showers 15.5 1005.1 0.0
07/12:00pm W 16 23 - - - - 20 Mostly cloudy Showers 15.0 1005.2 0.0
07/11:30am WNW 18 25 - - - - 10 Mostly clear Showers 14.6 1005.0 0.0
07/11:12am WNW 17 27 - - - - 10 Mostly clear Showers 14.6 1004.8 0.0
07/11:00am WNW 16 24 - - - - 10 Mostly clear - 15.0 1004.6 0.0
07/10:49am WNW 17 27 - - - - 10 Mostly clear Showers 14.5 1004.5 0.0
07/10:30am NW 18 26 - - - - 10 Mostly clear - 14.4 1004.6 0.0
07/10:00am WNW 17 27 - - - - 10 Mostly clear - 14.6 1004.2 0.0
07/09:30am NW 18 26 - - - - 10 Mostly clear - 14.0 1004.1 0.0
07/09:00am NW 20 27 - - - - 40 Mostly cloudy Fine 13.0 1004.1 0.4
07/08:30am NW 22 28 - - - - 10 Mostly clear - 11.8 1003.8 0.4
07/08:00am NW 20 26 - - - - 10 Mostly clear - 11.7 1003.7 0.4
07/07:45am WNW 16 26 - - - - 10 - - 11.7 1003.6 0.4
07/07:30am WNW 18 25 - - - - 10 Mostly clear - 12.3 1003.5 0.4
07/07:00am WNW 17 26 - - - - 10 Mostly clear - 11.8 1002.9 0.4
07/06:33am W 17 28 - - - - 10 Mostly clear - 12.2 1003.1 0.4
07/06:30am W 17 24 - - - - 10 Mostly clear - 12.0 1003.0 0.4
07/06:07am W 22 32 - - - - 10 Mostly clear - 12.0 1002.8 0.4
07/06:00am W 20 27 - - - - 40 Mostly cloudy Fine 11.7 1002.5 0.4
07/05:30am W 20 29 - - - - 10 - - 11.9 1002.0 0.4
07/05:12am W 19 29 - - - - 10 - - 11.5 1002.1 0.4
07/05:00am W 20 27 - - - - 10 - - 11.5 1002.1 0.4
07/04:30am W 18 28 - - - - 10 - - 11.2 1001.9 0.4
07/04:29am W 18 28 - - - - 10 - - 11.1 1001.9 0.4
07/04:00am W 20 29 - - - - 10 - - 10.9 1001.8 0.4
07/03:30am W 20 30 - - - - 10 - - 10.7 1001.7 0.4
07/03:03am WNW 17 28 - - - - 10 - - 10.5 1001.9 0.4
07/03:00am WNW 17 21 - - - - 10 Mostly clear - 10.7 1001.8 0.4
07/02:43am WNW 15 25 - - - - 10 - - 10.5 1001.8 0.4
07/02:30am WNW 14 19 - - - - 10 - - 10.3 1002.0 0.4
07/02:00am WNW 15 23 - - - - 10 - - 10.2 1002.3 0.4
07/01:30am WNW 16 24 - - - - 10 - - 10.3 1002.5 0.4
07/01:00am WNW 18 23 - - - - 10 - - 10.3 1002.6 0.4
07/12:30am W 16 26 - - - - 10 Partly cloudy - 10.4 1002.7 0.4
07/12:25am WNW 15 26 - - - - 10 Partly cloudy - 10.6 1002.7 0.4
07/12:00am WNW 14 19 - - - - 10 Mostly clear - 10.3 1003.0 0.4
 
Date/Time
EDT
Wind Sea
Height
m
Swell Vis
km
Cloud Weather Temp
°C
Press
hPa
Rain since
9am
mm
Dir  Spd
kts
Gust
kts
Height
m
Period
s
Dir
06/11:30pm WNW 13 19 - - - - 10 Mostly clear - 10.2 1002.9 0.4
06/11:00pm NW 11 19 - - - - 10 Mostly clear - 10.7 1002.9 0.4
06/10:30pm NW 12 17 - - - - 10 Mostly clear - 10.8 1002.8 0.4
06/10:00pm WNW 7 17 - - - - 10 Mostly clear - 10.7 1002.7 0.4
06/09:30pm W 12 17 - - - - 10 Mostly clear Showers 10.6 1002.3 0.4
06/09:00pm W 13 20 - - - - 30 Partly cloudy Recent precip. 11.1 1001.1 0.4
06/08:30pm W 19 28 - - - - 10 Mostly clear - 11.5 1000.5 0.4
06/08:17pm W 16 28 - - - - 10 Mostly clear Showers 11.7 1000.4 0.4
06/08:00pm W 18 22 - - - - 10 Mostly clear - 11.7 1000.2 0.4
06/07:30pm WNW 17 23 - - - - 10 Mostly clear Showers 11.6 1000.1 0.4
06/07:00pm WNW 15 20 - - - - 10 Mostly clear - 12.0 999.7 0.4
06/06:30pm WNW 18 23 - - - - 10 Mostly clear - 12.1 999.0 0.4
06/06:00pm WNW 10 14 - - - - 22 Mostly cloudy Showers 12.0 998.7 0.4
06/05:30pm W 13 18 - - - - 10 Mostly clear Showers 10.9 998.4 0.4
06/05:25pm W 14 20 - - - - 10 Mostly clear Showers 11.5 998.5 0.2
06/05:00pm W 19 28 - - - - 10 Mostly clear - 13.2 998.0 0.0
06/04:50pm WNW 17 27 - - - - 10 Mostly clear Showers 13.3 997.8 0.0
06/04:30pm W 20 27 - - - - 10 Mostly clear Showers 13.2 997.6 0.0
06/04:00pm WNW 25 35 - - - - 10 Mostly clear - 14.8 996.5 0.0
06/03:30pm W 23 37 - - - - 10 Mostly clear Showers 13.5 996.6 0.0
06/03:00pm WNW 25 36 - - - - 20 Mostly cloudy Recent precip. 16.0 996.0 0.0
06/02:30pm WNW 24 36 - - - - 10 Mostly clear Showers 15.1 995.9 0.0
06/02:23pm WNW 21 36 - - - - 10 Mostly cloudy Showers 15.9 995.8 0.0
06/02:11pm WNW 22 32 - - - - 10 Partly cloudy Showers 16.0 995.8 0.0
06/02:00pm W 20 34 - - - - 10 Partly cloudy - 16.1 995.7 0.0
06/01:30pm WNW 26 37 - - - - 10 Mostly clear - 16.0 995.4 0.0
06/01:01pm W 22 34 - - - - 10 Mostly clear - 15.8 995.6 0.0
06/01:00pm W 21 30 - - - - 10 Mostly clear - 16.9 995.7 0.0
06/12:30pm W 22 31 - - - - 10 Mostly clear - 15.9 995.4 0.0
06/12:00pm W 21 31 - - - - 40 Partly cloudy Recent precip. 15.3 995.5 0.0
06/11:30am WNW 23 33 - - - - 10 Mostly clear Showers 13.1 995.7 0.0
06/11:14am WNW 19 29 - - - - 10 Mostly clear Showers 14.3 995.7 0.0
06/11:00am WNW 19 25 - - - - 10 Mostly clear - 13.5 995.7 0.0
06/10:30am NW 24 32 - - - - 10 Mostly clear Showers 13.2 996.0 0.0
06/10:00am WNW 20 27 - - - - 10 Mostly clear - 12.9 996.0 0.0
06/09:30am WNW 19 24 - - - - 10 Mostly clear - 14.0 996.0 0.0
06/09:16am WNW 19 29 - - - - 10 Mostly clear - 13.3 996.0 0.0
06/09:00am WNW 22 29 - - - - 40 Partly cloudy Distant precip. 12.6 995.8 0.0
06/08:46am WNW 18 30 - - - - 10 Mostly clear - 12.9 995.8 0.0
06/08:30am WNW 15 23 - - - - 10 Mostly clear - 13.3 995.9 0.0
06/08:00am NW 15 20 - - - - 10 Mostly clear - 12.0 995.6 0.0
06/07:30am WNW 15 21 - - - - 10 Mostly clear - 11.0 995.6 0.0
06/07:25am WNW 18 28 - - - - 10 Mostly clear - 11.3 995.6 0.0
06/07:00am WNW 16 21 - - - - 10 Mostly clear - 12.0 994.8 0.0
06/06:30am WNW 14 20 - - - - 10 Mostly clear - 11.7 994.2 0.0
06/06:00am WNW 17 27 - - - - 40 Mostly clear Fine 10.8 994.5 0.0
06/05:30am WNW 17 24 - - - - 10 Partly cloudy - 10.9 994.7 0.0

Other formats

Comma delimited format used in spreadsheet applications
http://www.bom.gov.au/fwo/IDT60701/IDT60701.94975.axf

JavaScript Object Notation format (JSON) in row-major order
http://www.bom.gov.au/fwo/IDT60701/IDT60701.94975.json

Data quality

Most of these data are generated automatically and are frequently updated. Quality checks on data are not normally performed. It is possible for incorrect values to appear. Refer to information at About Latest Weather Observations and please check the disclaimer before using these data.